METAR AND TAF INFORMATION
METAR FOR KHQM
ADDS - METARS form results

(0635 UTC 15 June 2021)
Data provider http://aviationweather.gov/metar/data/
 
METAR text: KHQM 150610Z AUTO 20004KT 10SM SCT013 BKN035 14/12 A3008 RMK AO2 T01440117
Conditions at: KHQM (HOQUIAM , WA, US) observed 0610 UTC 15 June 2021
Temperature: 14.4°C (58°F)
Dewpoint: 11.7°C (53°F) [RH = 84%]
Pressure (altimeter): 30.08 inches Hg (1018.7 mb)
Winds: from the SSW (200 degrees) at 5 MPH (4 knots; 2.1 m/s)
Visibility: 10 or more miles (16+ km)
Ceiling: 3500 feet AGL
Clouds: scattered clouds at 1300 feet AGL
broken clouds at 3500 feet AGL
Weather: automated observation with no human augmentation;
there may or may not be significant weather present at this time

METAR text: KHQM 150553Z AUTO 20007KT 10SM BKN013 BKN021 OVC028 15/12 A3008 RMK AO2 SLP190 T01500117 10172 20150 51002
Conditions at: KHQM (HOQUIAM , WA, US) observed 0553 UTC 15 June 2021
Temperature: 15.0°C (59°F)
Dewpoint: 11.7°C (53°F) [RH = 81%]
Pressure (altimeter): 30.08 inches Hg (1018.7 mb)
[Sea-level pressure: 1019.0 mb]
Winds: from the SSW (200 degrees) at 8 MPH (7 knots; 3.6 m/s)
Visibility: 10 or more miles (16+ km)
Ceiling: 1300 feet AGL
Clouds: broken clouds at 1300 feet AGL
broken clouds at 2100 feet AGL
overcast cloud deck at 2800 feet AGL
Weather: automated observation with no human augmentation;
there may or may not be significant weather present at this time

METAR text: KHQM 150551Z AUTO 20006KT 10SM BKN013 BKN018 OVC028 15/12 A3008 RMK AO2
Conditions at: KHQM (HOQUIAM , WA, US) observed 0551 UTC 15 June 2021
Temperature: 15.0°C (59°F)
Dewpoint: 12.0°C (54°F) [RH = 82%]
Pressure (altimeter): 30.08 inches Hg (1018.7 mb)
Winds: from the SSW (200 degrees) at 7 MPH (6 knots; 3.1 m/s)
Visibility: 10 or more miles (16+ km)
Ceiling: 1300 feet AGL
Clouds: broken clouds at 1300 feet AGL
broken clouds at 1800 feet AGL
overcast cloud deck at 2800 feet AGL
Weather: automated observation with no human augmentation;
there may or may not be significant weather present at this time

METAR text: KHQM 150537Z AUTO 23005KT 10SM SCT015 SCT021 BKN026 15/12 A3009 RMK AO2 T01500117
Conditions at: KHQM (HOQUIAM , WA, US) observed 0537 UTC 15 June 2021
Temperature: 15.0°C (59°F)
Dewpoint: 11.7°C (53°F) [RH = 81%]
Pressure (altimeter): 30.09 inches Hg (1019.0 mb)
Winds: from the SW (230 degrees) at 6 MPH (5 knots; 2.6 m/s)
Visibility: 10 or more miles (16+ km)
Ceiling: 2600 feet AGL
Clouds: scattered clouds at 1500 feet AGL
scattered clouds at 2100 feet AGL
broken clouds at 2600 feet AGL
Weather: automated observation with no human augmentation;
there may or may not be significant weather present at this time

Forecast for: KHQM (HOQUIAM , WA, US)
Text: KHQM 150533Z 1506/1606 22006KT P6SM SCT015 BKN025 BKN040
Forecast period: 0600 to 1000 UTC 15 June 2021
Forecast type: FROM: standard forecast or significant change
Winds: from the SW (220 degrees) at 7 MPH (6 knots; 3.1 m/s)
Visibility: 6 or more miles (10+ km)
Ceiling: 2500 feet AGL
Clouds: scattered clouds at 1500 feet AGL
broken clouds at 2500 feet AGL
broken clouds at 4000 feet AGL
Weather: no significant weather forecast for this period
Text: FM151000 11006KT P6SM BKN015 OVC025
Forecast period: 1000 to 1700 UTC 15 June 2021
Forecast type: FROM: standard forecast or significant change
Winds: from the ESE (110 degrees) at 7 MPH (6 knots; 3.1 m/s)
Visibility: 6 or more miles (10+ km)
Ceiling: 1500 feet AGL
Clouds: broken clouds at 1500 feet AGL
overcast cloud deck at 2500 feet AGL
Weather: no significant weather forecast for this period
Text: FM151700 18008KT P6SM -SHRA SCT015 BKN025 BKN040
Forecast period: 1700 UTC 15 June 2021 to 0500 UTC 16 June 2021
Forecast type: FROM: standard forecast or significant change
Winds: from the S (180 degrees) at 9 MPH (8 knots; 4.1 m/s)
Visibility: 6 or more miles (10+ km)
Ceiling: 2500 feet AGL
Clouds: scattered clouds at 1500 feet AGL
broken clouds at 2500 feet AGL
broken clouds at 4000 feet AGL
Weather: -SHRA  (light rain showers)
Text: FM160500 21006KT P6SM BKN015 OVC025
Forecast period: 0500 to 0600 UTC 16 June 2021
Forecast type: FROM: standard forecast or significant change
Winds: from the SSW (210 degrees) at 7 MPH (6 knots; 3.1 m/s)
Visibility: 6 or more miles (10+ km)
Ceiling: 1500 feet AGL
Clouds: broken clouds at 1500 feet AGL
overcast cloud deck at 2500 feet AGL
Weather: no significant weather forecast for this period

 AIRPORT MAP

 RUNWAY INFORMATION
Runway 06 Runway length 5000 ft Runway width 150 ft
Runway elevation 18 ft Runway displaced threshold 0 ft Runway heading 80
Runway 24 Runway length 5000 ft Runway width 150 ft
Runway elevation 15 ft Runway displaced threshold 0 ft Runway heading 260

 AIRPORT FREQUENCIES
Type ASOS Name ASOS Frequency 135.775 MHZ
Type CNTR Name SEATTLE CN Frequency 128.3 MHZ
Type RDO Name SEATTLE RD Frequency 122.2 MHZ
Type UNIC Name CTAF/UNICO Frequency 122.7 MHZ

 AIRPORT NEAR NAVIGATION AIDS
Type NDB Name Abern Frequency 236 KHZ
Type VORTAC Name Hoquiam Frequency 117700 KHZ

-